sensor_id;sensor_type;location;lat;lon;timestamp;temperature;humidity
40848;DHT22;26570;50.962;5.340;2023-04-12T00:02:26;10.00;99.90
40848;DHT22;26570;50.962;5.340;2023-04-12T00:05:14;10.00;99.90
40848;DHT22;26570;50.962;5.340;2023-04-12T00:08:00;10.00;99.90
40848;DHT22;26570;50.962;5.340;2023-04-12T00:10:49;10.00;99.90
40848;DHT22;26570;50.962;5.340;2023-04-12T00:13:34;9.90;99.90
40848;DHT22;26570;50.962;5.340;2023-04-12T00:16:19;9.90;99.90
40848;DHT22;26570;50.962;5.340;2023-04-12T00:19:05;10.00;99.90
40848;DHT22;26570;50.962;5.340;2023-04-12T00:21:50;9.80;99.90
40848;DHT22;26570;50.962;5.340;2023-04-12T00:24:39;9.70;99.90
40848;DHT22;26570;50.962;5.340;2023-04-12T00:27:25;9.80;99.90
40848;DHT22;26570;50.962;5.340;2023-04-12T00:30:10;9.70;99.90
40848;DHT22;26570;50.962;5.340;2023-04-12T00:32:55;9.80;99.90
40848;DHT22;26570;50.962;5.340;2023-04-12T00:35:40;9.80;99.90
40848;DHT22;26570;50.962;5.340;2023-04-12T00:38:26;9.80;99.90
40848;DHT22;26570;50.962;5.340;2023-04-12T00:41:16;9.90;99.90
40848;DHT22;26570;50.962;5.340;2023-04-12T00:44:01;9.80;99.90
40848;DHT22;26570;50.962;5.340;2023-04-12T00:47:09;9.90;99.90
40848;DHT22;26570;50.962;5.340;2023-04-12T00:49:54;9.90;99.90
40848;DHT22;26570;50.962;5.340;2023-04-12T00:52:40;9.90;99.90
40848;DHT22;26570;50.962;5.340;2023-04-12T00:55:49;9.80;99.90
40848;DHT22;26570;50.962;5.340;2023-04-12T00:58:35;9.80;99.90
40848;DHT22;26570;50.962;5.340;2023-04-12T01:01:20;9.80;99.90
40848;DHT22;26570;50.962;5.340;2023-04-12T01:04:28;9.90;99.90
40848;DHT22;26570;50.962;5.340;2023-04-12T01:07:42;9.80;99.90
40848;DHT22;26570;50.962;5.340;2023-04-12T01:16:59;9.90;99.90
40848;DHT22;26570;50.962;5.340;2023-04-12T01:26:46;9.70;99.90
40848;DHT22;26570;50.962;5.340;2023-04-12T01:29:32;9.80;99.90
40848;DHT22;26570;50.962;5.340;2023-04-12T01:32:18;9.60;99.90
40848;DHT22;26570;50.962;5.340;2023-04-12T01:35:05;9.50;99.90
40848;DHT22;26570;50.962;5.340;2023-04-12T01:37:52;9.70;99.90
40848;DHT22;26570;50.962;5.340;2023-04-12T01:40:38;9.50;99.90
40848;DHT22;26570;50.962;5.340;2023-04-12T01:43:26;9.60;99.90
40848;DHT22;26570;50.962;5.340;2023-04-12T01:46:34;9.70;99.90
40848;DHT22;26570;50.962;5.340;2023-04-12T01:49:24;9.60;99.90
40848;DHT22;26570;50.962;5.340;2023-04-12T01:52:14;9.50;99.90
40848;DHT22;26570;50.962;5.340;2023-04-12T01:55:04;9.60;99.90
40848;DHT22;26570;50.962;5.340;2023-04-12T01:57:49;9.60;99.90
40848;DHT22;26570;50.962;5.340;2023-04-12T02:00:35;9.60;99.90
40848;DHT22;26570;50.962;5.340;2023-04-12T02:03:42;9.50;99.90
40848;DHT22;26570;50.962;5.340;2023-04-12T02:06:29;9.50;99.90
40848;DHT22;26570;50.962;5.340;2023-04-12T02:09:15;9.50;99.90
40848;DHT22;26570;50.962;5.340;2023-04-12T02:12:01;9.60;99.90
40848;DHT22;26570;50.962;5.340;2023-04-12T02:15:09;9.50;99.90
40848;DHT22;26570;50.962;5.340;2023-04-12T02:17:54;9.50;99.90
40848;DHT22;26570;50.962;5.340;2023-04-12T02:20:40;9.50;99.90
40848;DHT22;26570;50.962;5.340;2023-04-12T02:23:25;9.60;99.90
40848;DHT22;26570;50.962;5.340;2023-04-12T02:26:11;9.60;99.90
40848;DHT22;26570;50.962;5.340;2023-04-12T02:29:00;9.60;99.90
40848;DHT22;26570;50.962;5.340;2023-04-12T02:31:45;9.60;99.90
40848;DHT22;26570;50.962;5.340;2023-04-12T02:34:30;9.50;99.90
40848;DHT22;26570;50.962;5.340;2023-04-12T02:37:23;9.50;99.90
40848;DHT22;26570;50.962;5.340;2023-04-12T02:40:11;9.40;99.90
40848;DHT22;26570;50.962;5.340;2023-04-12T02:43:19;9.40;99.90
40848;DHT22;26570;50.962;5.340;2023-04-12T02:46:05;9.40;99.90
40848;DHT22;26570;50.962;5.340;2023-04-12T02:49:13;9.50;99.90
40848;DHT22;26570;50.962;5.340;2023-04-12T02:51:58;9.50;99.90
40848;DHT22;26570;50.962;5.340;2023-04-12T02:54:43;9.60;99.90
40848;DHT22;26570;50.962;5.340;2023-04-12T02:57:28;9.70;99.90
40848;DHT22;26570;50.962;5.340;2023-04-12T03:00:14;9.60;99.90
40848;DHT22;26570;50.962;5.340;2023-04-12T03:03:00;9.50;99.90
40848;DHT22;26570;50.962;5.340;2023-04-12T03:05:46;9.70;99.90
40848;DHT22;26570;50.962;5.340;2023-04-12T03:08:32;9.70;99.90
40848;DHT22;26570;50.962;5.340;2023-04-12T03:11:17;9.70;99.90
40848;DHT22;26570;50.962;5.340;2023-04-12T03:14:02;9.50;99.90
40848;DHT22;26570;50.962;5.340;2023-04-12T03:16:48;9.70;99.90
40848;DHT22;26570;50.962;5.340;2023-04-12T03:19:34;9.80;99.90
40848;DHT22;26570;50.962;5.340;2023-04-12T03:22:20;9.70;99.90
40848;DHT22;26570;50.962;5.340;2023-04-12T03:25:07;9.70;99.90
40848;DHT22;26570;50.962;5.340;2023-04-12T03:28:16;9.60;99.90
40848;DHT22;26570;50.962;5.340;2023-04-12T03:31:01;9.60;99.90
40848;DHT22;26570;50.962;5.340;2023-04-12T03:33:47;9.50;99.90
40848;DHT22;26570;50.962;5.340;2023-04-12T03:36:32;9.60;99.90
40848;DHT22;26570;50.962;5.340;2023-04-12T03:39:39;9.60;99.90
40848;DHT22;26570;50.962;5.340;2023-04-12T03:42:26;9.60;99.90
40848;DHT22;26570;50.962;5.340;2023-04-12T03:45:12;9.60;99.90
40848;DHT22;26570;50.962;5.340;2023-04-12T03:47:57;9.70;99.90
40848;DHT22;26570;50.962;5.340;2023-04-12T03:50:43;9.80;99.90
40848;DHT22;26570;50.962;5.340;2023-04-12T03:53:28;9.80;99.90
40848;DHT22;26570;50.962;5.340;2023-04-12T03:56:16;9.80;99.90
40848;DHT22;26570;50.962;5.340;2023-04-12T03:59:02;9.80;99.90
40848;DHT22;26570;50.962;5.340;2023-04-12T04:01:47;9.80;99.90
40848;DHT22;26570;50.962;5.340;2023-04-12T04:04:35;9.70;99.90
40848;DHT22;26570;50.962;5.340;2023-04-12T04:07:21;9.70;99.90
40848;DHT22;26570;50.962;5.340;2023-04-12T04:10:07;9.60;99.90
40848;DHT22;26570;50.962;5.340;2023-04-12T04:12:53;9.70;99.90
40848;DHT22;26570;50.962;5.340;2023-04-12T04:15:38;9.70;99.90
40848;DHT22;26570;50.962;5.340;2023-04-12T04:18:46;9.80;99.90
40848;DHT22;26570;50.962;5.340;2023-04-12T04:21:31;9.70;99.90
40848;DHT22;26570;50.962;5.340;2023-04-12T04:24:16;9.70;99.90
40848;DHT22;26570;50.962;5.340;2023-04-12T04:27:02;9.70;99.90
40848;DHT22;26570;50.962;5.340;2023-04-12T04:29:48;9.80;99.90
40848;DHT22;26570;50.962;5.340;2023-04-12T04:32:35;9.80;99.90
40848;DHT22;26570;50.962;5.340;2023-04-12T04:35:21;9.70;99.90
40848;DHT22;26570;50.962;5.340;2023-04-12T04:38:30;9.70;99.90
40848;DHT22;26570;50.962;5.340;2023-04-12T04:41:19;9.70;99.90
40848;DHT22;26570;50.962;5.340;2023-04-12T04:44:07;9.80;99.90
40848;DHT22;26570;50.962;5.340;2023-04-12T04:46:54;9.90;99.90
40848;DHT22;26570;50.962;5.340;2023-04-12T04:49:43;10.00;99.90
40848;DHT22;26570;50.962;5.340;2023-04-12T04:52:50;9.80;99.90
40848;DHT22;26570;50.962;5.340;2023-04-12T04:55:35;9.80;99.90
40848;DHT22;26570;50.962;5.340;2023-04-12T04:58:20;9.90;99.90
40848;DHT22;26570;50.962;5.340;2023-04-12T05:01:06;9.80;99.90
40848;DHT22;26570;50.962;5.340;2023-04-12T05:03:52;9.80;99.90
40848;DHT22;26570;50.962;5.340;2023-04-12T05:06:38;9.80;99.90
40848;DHT22;26570;50.962;5.340;2023-04-12T05:09:24;9.80;99.90
40848;DHT22;26570;50.962;5.340;2023-04-12T05:12:09;9.90;99.90
40848;DHT22;26570;50.962;5.340;2023-04-12T05:14:55;10.00;99.90
40848;DHT22;26570;50.962;5.340;2023-04-12T05:17:43;9.90;99.90
40848;DHT22;26570;50.962;5.340;2023-04-12T05:20:29;10.10;99.90
40848;DHT22;26570;50.962;5.340;2023-04-12T05:23:15;10.00;99.90
40848;DHT22;26570;50.962;5.340;2023-04-12T05:26:23;10.00;99.90
40848;DHT22;26570;50.962;5.340;2023-04-12T05:29:09;10.10;99.90
40848;DHT22;26570;50.962;5.340;2023-04-12T05:31:55;10.00;99.90
40848;DHT22;26570;50.962;5.340;2023-04-12T05:34:40;9.90;99.90
40848;DHT22;26570;50.962;5.340;2023-04-12T05:37:48;10.00;99.90
40848;DHT22;26570;50.962;5.340;2023-04-12T05:40:33;10.10;99.90
40848;DHT22;26570;50.962;5.340;2023-04-12T05:43:20;10.00;99.90
40848;DHT22;26570;50.962;5.340;2023-04-12T05:46:05;10.10;99.90
40848;DHT22;26570;50.962;5.340;2023-04-12T05:48:55;10.10;99.90
40848;DHT22;26570;50.962;5.340;2023-04-12T05:51:40;10.20;99.90
40848;DHT22;26570;50.962;5.340;2023-04-12T05:54:27;10.10;99.90
40848;DHT22;26570;50.962;5.340;2023-04-12T05:57:15;10.10;99.90
40848;DHT22;26570;50.962;5.340;2023-04-12T06:00:01;10.20;99.90
40848;DHT22;26570;50.962;5.340;2023-04-12T06:02:56;10.20;99.90
40848;DHT22;26570;50.962;5.340;2023-04-12T06:05:44;10.10;99.90
40848;DHT22;26570;50.962;5.340;2023-04-12T06:08:29;10.10;99.90
40848;DHT22;26570;50.962;5.340;2023-04-12T06:11:15;10.20;99.90
40848;DHT22;26570;50.962;5.340;2023-04-12T06:14:00;10.30;99.90
40848;DHT22;26570;50.962;5.340;2023-04-12T06:16:45;10.30;99.90
40848;DHT22;26570;50.962;5.340;2023-04-12T06:19:30;10.30;99.90
40848;DHT22;26570;50.962;5.340;2023-04-12T06:22:16;10.20;99.90
40848;DHT22;26570;50.962;5.340;2023-04-12T06:25:01;10.30;99.90
40848;DHT22;26570;50.962;5.340;2023-04-12T06:27:50;10.40;99.90
40848;DHT22;26570;50.962;5.340;2023-04-12T06:30:38;10.70;99.90
40848;DHT22;26570;50.962;5.340;2023-04-12T06:33:24;10.60;99.90
40848;DHT22;26570;50.962;5.340;2023-04-12T06:36:12;10.80;99.90
40848;DHT22;26570;50.962;5.340;2023-04-12T06:38:59;10.80;99.90
40848;DHT22;26570;50.962;5.340;2023-04-12T06:41:45;10.70;99.90
40848;DHT22;26570;50.962;5.340;2023-04-12T06:44:31;10.60;99.90
40848;DHT22;26570;50.962;5.340;2023-04-12T06:47:17;10.60;99.90
40848;DHT22;26570;50.962;5.340;2023-04-12T06:50:05;10.50;99.90
40848;DHT22;26570;50.962;5.340;2023-04-12T06:52:53;10.70;99.90
40848;DHT22;26570;50.962;5.340;2023-04-12T06:55:41;10.60;99.90
40848;DHT22;26570;50.962;5.340;2023-04-12T06:58:29;10.70;99.90
40848;DHT22;26570;50.962;5.340;2023-04-12T07:01:15;10.80;99.90
40848;DHT22;26570;50.962;5.340;2023-04-12T07:04:00;10.80;99.90
40848;DHT22;26570;50.962;5.340;2023-04-12T07:06:53;10.80;99.90
40848;DHT22;26570;50.962;5.340;2023-04-12T07:09:45;10.80;99.90
40848;DHT22;26570;50.962;5.340;2023-04-12T07:12:53;10.80;99.90
40848;DHT22;26570;50.962;5.340;2023-04-12T07:15:43;10.80;99.90
40848;DHT22;26570;50.962;5.340;2023-04-12T07:18:28;10.60;99.90
40848;DHT22;26570;50.962;5.340;2023-04-12T07:21:13;10.70;99.90
40848;DHT22;26570;50.962;5.340;2023-04-12T07:24:01;10.50;99.90
40848;DHT22;26570;50.962;5.340;2023-04-12T07:26:53;10.60;99.90
40848;DHT22;26570;50.962;5.340;2023-04-12T07:29:40;10.40;99.90
40848;DHT22;26570;50.962;5.340;2023-04-12T07:32:25;10.60;99.90
40848;DHT22;26570;50.962;5.340;2023-04-12T07:35:11;10.70;99.90
40848;DHT22;26570;50.962;5.340;2023-04-12T07:37:59;10.80;99.90
40848;DHT22;26570;50.962;5.340;2023-04-12T07:40:47;11.00;99.90
40848;DHT22;26570;50.962;5.340;2023-04-12T07:44:00;11.00;99.90
40848;DHT22;26570;50.962;5.340;2023-04-12T07:46:45;11.10;99.90
40848;DHT22;26570;50.962;5.340;2023-04-12T07:49:32;11.10;99.90
40848;DHT22;26570;50.962;5.340;2023-04-12T07:52:17;11.30;99.90
40848;DHT22;26570;50.962;5.340;2023-04-12T07:55:05;11.20;99.90
40848;DHT22;26570;50.962;5.340;2023-04-12T07:57:50;11.00;99.90
40848;DHT22;26570;50.962;5.340;2023-04-12T08:00:35;11.20;99.90
40848;DHT22;26570;50.962;5.340;2023-04-12T08:03:20;11.30;99.90
40848;DHT22;26570;50.962;5.340;2023-04-12T08:06:06;11.50;99.90
40848;DHT22;26570;50.962;5.340;2023-04-12T08:08:51;11.60;99.90
40848;DHT22;26570;50.962;5.340;2023-04-12T08:11:36;11.60;99.90
40848;DHT22;26570;50.962;5.340;2023-04-12T08:14:24;11.40;99.90
40848;DHT22;26570;50.962;5.340;2023-04-12T08:17:12;11.30;99.90
40848;DHT22;26570;50.962;5.340;2023-04-12T08:20:00;11.50;99.90
40848;DHT22;26570;50.962;5.340;2023-04-12T08:22:45;11.40;99.90
40848;DHT22;26570;50.962;5.340;2023-04-12T08:25:30;11.30;99.90
40848;DHT22;26570;50.962;5.340;2023-04-12T08:28:16;11.30;99.90
40848;DHT22;26570;50.962;5.340;2023-04-12T08:31:04;11.60;99.90
40848;DHT22;26570;50.962;5.340;2023-04-12T08:33:50;11.60;99.90
40848;DHT22;26570;50.962;5.340;2023-04-12T08:36:35;11.70;99.90
40848;DHT22;26570;50.962;5.340;2023-04-12T08:39:20;11.70;99.90
40848;DHT22;26570;50.962;5.340;2023-04-12T08:42:07;12.00;99.90
40848;DHT22;26570;50.962;5.340;2023-04-12T08:44:52;12.90;99.90
40848;DHT22;26570;50.962;5.340;2023-04-12T08:47:42;13.30;99.90
40848;DHT22;26570;50.962;5.340;2023-04-12T08:50:55;13.80;99.90
40848;DHT22;26570;50.962;5.340;2023-04-12T08:53:41;14.50;99.90
40848;DHT22;26570;50.962;5.340;2023-04-12T08:56:49;14.60;99.90
40848;DHT22;26570;50.962;5.340;2023-04-12T08:59:37;14.60;99.90
40848;DHT22;26570;50.962;5.340;2023-04-12T09:02:23;14.90;99.90
40848;DHT22;26570;50.962;5.340;2023-04-12T09:05:08;14.50;99.90
40848;DHT22;26570;50.962;5.340;2023-04-12T09:08:16;14.80;99.90
40848;DHT22;26570;50.962;5.340;2023-04-12T09:11:20;14.60;99.90
40848;DHT22;26570;50.962;5.340;2023-04-12T09:14:23;14.60;99.90
40848;DHT22;26570;50.962;5.340;2023-04-12T09:17:26;14.40;99.90
40848;DHT22;26570;50.962;5.340;2023-04-12T09:23:25;14.20;99.90
40848;DHT22;26570;50.962;5.340;2023-04-12T09:26:32;14.00;99.90
40848;DHT22;26570;50.962;5.340;2023-04-12T09:29:24;14.20;99.90
40848;DHT22;26570;50.962;5.340;2023-04-12T09:32:09;15.10;99.90
40848;DHT22;26570;50.962;5.340;2023-04-12T09:34:56;15.30;99.90
40848;DHT22;26570;50.962;5.340;2023-04-12T09:38:10;15.70;99.90
40848;DHT22;26570;50.962;5.340;2023-04-12T09:40:57;15.90;99.90
40848;DHT22;26570;50.962;5.340;2023-04-12T09:44:29;15.60;99.90
40848;DHT22;26570;50.962;5.340;2023-04-12T09:47:15;15.30;99.90
40848;DHT22;26570;50.962;5.340;2023-04-12T09:50:00;15.80;99.90
40848;DHT22;26570;50.962;5.340;2023-04-12T09:52:48;16.40;99.90
40848;DHT22;26570;50.962;5.340;2023-04-12T09:55:34;16.40;99.90
40848;DHT22;26570;50.962;5.340;2023-04-12T09:58:20;16.30;99.90
40848;DHT22;26570;50.962;5.340;2023-04-12T10:01:08;15.90;99.90
40848;DHT22;26570;50.962;5.340;2023-04-12T10:03:56;15.50;99.90
40848;DHT22;26570;50.962;5.340;2023-04-12T10:06:42;15.40;99.90
40848;DHT22;26570;50.962;5.340;2023-04-12T10:09:27;15.00;99.90
40848;DHT22;26570;50.962;5.340;2023-04-12T10:12:13;15.00;99.90
40848;DHT22;26570;50.962;5.340;2023-04-12T10:15:01;14.90;99.90
40848;DHT22;26570;50.962;5.340;2023-04-12T10:17:53;15.00;99.90
40848;DHT22;26570;50.962;5.340;2023-04-12T10:20:39;14.80;99.90
40848;DHT22;26570;50.962;5.340;2023-04-12T10:23:27;14.60;99.90
40848;DHT22;26570;50.962;5.340;2023-04-12T10:26:14;14.10;99.90
40848;DHT22;26570;50.962;5.340;2023-04-12T10:29:22;14.20;99.90
40848;DHT22;26570;50.962;5.340;2023-04-12T10:32:23;14.00;99.90
40848;DHT22;26570;50.962;5.340;2023-04-12T10:35:11;14.10;99.90
40848;DHT22;26570;50.962;5.340;2023-04-12T10:38:21;14.40;99.90
40848;DHT22;26570;50.962;5.340;2023-04-12T10:41:31;14.50;99.90
40848;DHT22;26570;50.962;5.340;2023-04-12T10:44:25;15.00;99.90
40848;DHT22;26570;50.962;5.340;2023-04-12T10:47:10;15.00;99.90
40848;DHT22;26570;50.962;5.340;2023-04-12T10:59:16;15.00;99.90
40848;DHT22;26570;50.962;5.340;2023-04-12T11:02:10;14.80;99.90
40848;DHT22;26570;50.962;5.340;2023-04-12T11:05:09;14.80;99.90
40848;DHT22;26570;50.962;5.340;2023-04-12T11:07:59;14.70;99.90
40848;DHT22;26570;50.962;5.340;2023-04-12T11:10:49;14.80;99.90
40848;DHT22;26570;50.962;5.340;2023-04-12T11:13:35;14.80;99.90
40848;DHT22;26570;50.962;5.340;2023-04-12T11:16:25;14.70;99.90
40848;DHT22;26570;50.962;5.340;2023-04-12T11:19:11;14.80;99.90
40848;DHT22;26570;50.962;5.340;2023-04-12T11:22:21;14.90;99.90
40848;DHT22;26570;50.962;5.340;2023-04-12T11:25:09;14.80;99.90
40848;DHT22;26570;50.962;5.340;2023-04-12T11:27:55;14.60;99.90
40848;DHT22;26570;50.962;5.340;2023-04-12T11:30:55;14.50;99.90
40848;DHT22;26570;50.962;5.340;2023-04-12T11:33:40;14.30;99.90
40848;DHT22;26570;50.962;5.340;2023-04-12T11:36:25;14.00;99.90
40848;DHT22;26570;50.962;5.340;2023-04-12T11:39:10;13.80;99.90
40848;DHT22;26570;50.962;5.340;2023-04-12T11:41:57;13.70;99.90
40848;DHT22;26570;50.962;5.340;2023-04-12T11:44:46;13.70;99.90
40848;DHT22;26570;50.962;5.340;2023-04-12T11:47:32;13.50;99.90
40848;DHT22;26570;50.962;5.340;2023-04-12T11:50:30;13.20;99.90
40848;DHT22;26570;50.962;5.340;2023-04-12T11:53:16;13.30;99.90
40848;DHT22;26570;50.962;5.340;2023-04-12T11:56:05;13.30;99.90
40848;DHT22;26570;50.962;5.340;2023-04-12T11:59:19;13.20;99.90
40848;DHT22;26570;50.962;5.340;2023-04-12T12:02:05;13.00;99.90
40848;DHT22;26570;50.962;5.340;2023-04-12T12:04:54;13.10;99.90
40848;DHT22;26570;50.962;5.340;2023-04-12T12:08:04;13.00;99.90
40848;DHT22;26570;50.962;5.340;2023-04-12T12:10:51;13.00;99.90
40848;DHT22;26570;50.962;5.340;2023-04-12T12:13:45;13.00;99.90
40848;DHT22;26570;50.962;5.340;2023-04-12T12:16:33;12.80;99.90
40848;DHT22;26570;50.962;5.340;2023-04-12T12:19:35;12.70;99.90
40848;DHT22;26570;50.962;5.340;2023-04-12T12:22:45;13.00;99.90
40848;DHT22;26570;50.962;5.340;2023-04-12T12:25:31;13.60;99.90
40848;DHT22;26570;50.962;5.340;2023-04-12T12:28:47;13.70;99.90
40848;DHT22;26570;50.962;5.340;2023-04-12T12:31:33;13.60;99.90
40848;DHT22;26570;50.962;5.340;2023-04-12T12:34:18;13.90;99.90
40848;DHT22;26570;50.962;5.340;2023-04-12T12:37:18;14.20;99.90
40848;DHT22;26570;50.962;5.340;2023-04-12T12:40:32;14.50;99.90
40848;DHT22;26570;50.962;5.340;2023-04-12T12:43:18;14.50;99.90
40848;DHT22;26570;50.962;5.340;2023-04-12T12:46:06;14.40;99.90
40848;DHT22;26570;50.962;5.340;2023-04-12T12:48:57;14.50;99.90
40848;DHT22;26570;50.962;5.340;2023-04-12T12:52:07;14.70;99.90
40848;DHT22;26570;50.962;5.340;2023-04-12T12:54:52;14.60;99.90
40848;DHT22;26570;50.962;5.340;2023-04-12T12:57:37;14.20;99.90
40848;DHT22;26570;50.962;5.340;2023-04-12T13:00:25;14.10;99.90
40848;DHT22;26570;50.962;5.340;2023-04-12T13:03:16;13.80;99.90
40848;DHT22;26570;50.962;5.340;2023-04-12T13:06:05;14.00;99.90
40848;DHT22;26570;50.962;5.340;2023-04-12T13:08:55;14.10;99.90
40848;DHT22;26570;50.962;5.340;2023-04-12T13:11:44;14.30;99.90
40848;DHT22;26570;50.962;5.340;2023-04-12T13:14:32;13.50;99.90
40848;DHT22;26570;50.962;5.340;2023-04-12T13:17:17;12.00;99.90
40848;DHT22;26570;50.962;5.340;2023-04-12T13:20:03;11.70;99.90
40848;DHT22;26570;50.962;5.340;2023-04-12T13:22:49;11.40;99.90
40848;DHT22;26570;50.962;5.340;2023-04-12T13:26:05;11.90;99.90
40848;DHT22;26570;50.962;5.340;2023-04-12T13:28:50;12.20;99.90
40848;DHT22;26570;50.962;5.340;2023-04-12T13:31:41;11.90;99.90
40848;DHT22;26570;50.962;5.340;2023-04-12T13:34:26;11.70;99.90
40848;DHT22;26570;50.962;5.340;2023-04-12T13:37:13;11.70;99.90
40848;DHT22;26570;50.962;5.340;2023-04-12T13:40:04;11.70;99.90
40848;DHT22;26570;50.962;5.340;2023-04-12T13:42:52;11.70;99.90
40848;DHT22;26570;50.962;5.340;2023-04-12T13:45:37;11.50;99.90
40848;DHT22;26570;50.962;5.340;2023-04-12T13:48:22;11.50;99.90
40848;DHT22;26570;50.962;5.340;2023-04-12T13:51:08;11.60;99.90
40848;DHT22;26570;50.962;5.340;2023-04-12T13:53:56;12.30;99.90
40848;DHT22;26570;50.962;5.340;2023-04-12T13:56:44;12.90;99.90
40848;DHT22;26570;50.962;5.340;2023-04-12T13:59:29;13.50;99.90
40848;DHT22;26570;50.962;5.340;2023-04-12T14:02:16;13.90;99.90
40848;DHT22;26570;50.962;5.340;2023-04-12T14:05:01;14.30;99.90
40848;DHT22;26570;50.962;5.340;2023-04-12T14:07:47;14.20;99.90
40848;DHT22;26570;50.962;5.340;2023-04-12T14:10:36;14.30;99.90
40848;DHT22;26570;50.962;5.340;2023-04-12T14:13:22;14.30;99.90
40848;DHT22;26570;50.962;5.340;2023-04-12T14:16:07;14.10;99.90
40848;DHT22;26570;50.962;5.340;2023-04-12T14:19:19;13.90;99.90
40848;DHT22;26570;50.962;5.340;2023-04-12T14:22:07;13.40;99.90
40848;DHT22;26570;50.962;5.340;2023-04-12T14:24:55;13.20;99.90
40848;DHT22;26570;50.962;5.340;2023-04-12T14:27:43;12.90;99.90
40848;DHT22;26570;50.962;5.340;2023-04-12T14:30:28;12.70;99.90
40848;DHT22;26570;50.962;5.340;2023-04-12T14:33:13;12.70;99.90
40848;DHT22;26570;50.962;5.340;2023-04-12T14:36:23;12.40;99.90
40848;DHT22;26570;50.962;5.340;2023-04-12T14:39:12;12.30;99.90
40848;DHT22;26570;50.962;5.340;2023-04-12T14:42:00;12.30;99.90
40848;DHT22;26570;50.962;5.340;2023-04-12T14:44:46;12.20;99.90
40848;DHT22;26570;50.962;5.340;2023-04-12T14:47:38;12.50;99.90
40848;DHT22;26570;50.962;5.340;2023-04-12T14:50:24;12.50;99.90
40848;DHT22;26570;50.962;5.340;2023-04-12T14:53:09;12.80;99.90
40848;DHT22;26570;50.962;5.340;2023-04-12T14:55:56;12.90;99.90
40848;DHT22;26570;50.962;5.340;2023-04-12T14:58:44;12.80;99.90
40848;DHT22;26570;50.962;5.340;2023-04-12T15:01:30;12.50;99.90
40848;DHT22;26570;50.962;5.340;2023-04-12T15:04:17;12.30;99.90
40848;DHT22;26570;50.962;5.340;2023-04-12T15:07:05;11.90;99.90
40848;DHT22;26570;50.962;5.340;2023-04-12T15:09:53;11.40;99.90
40848;DHT22;26570;50.962;5.340;2023-04-12T15:12:39;11.10;99.90
40848;DHT22;26570;50.962;5.340;2023-04-12T15:15:25;10.70;99.90
40848;DHT22;26570;50.962;5.340;2023-04-12T15:18:10;10.70;99.90
40848;DHT22;26570;50.962;5.340;2023-04-12T15:21:00;10.60;99.90
40848;DHT22;26570;50.962;5.340;2023-04-12T15:24:07;10.70;99.90
40848;DHT22;26570;50.962;5.340;2023-04-12T15:26:55;11.10;99.90
40848;DHT22;26570;50.962;5.340;2023-04-12T15:29:43;11.60;99.90
40848;DHT22;26570;50.962;5.340;2023-04-12T15:32:34;12.10;99.90
40848;DHT22;26570;50.962;5.340;2023-04-12T15:35:25;12.40;99.90
40848;DHT22;26570;50.962;5.340;2023-04-12T15:38:15;12.50;99.90
40848;DHT22;26570;50.962;5.340;2023-04-12T15:41:06;12.60;99.90
40848;DHT22;26570;50.962;5.340;2023-04-12T15:43:55;12.80;99.90
40848;DHT22;26570;50.962;5.340;2023-04-12T15:46:40;13.00;99.90
40848;DHT22;26570;50.962;5.340;2023-04-12T15:49:26;13.10;99.90
40848;DHT22;26570;50.962;5.340;2023-04-12T15:52:19;13.00;99.90
40848;DHT22;26570;50.962;5.340;2023-04-12T15:55:11;13.10;99.90
40848;DHT22;26570;50.962;5.340;2023-04-12T15:57:59;13.20;99.90
40848;DHT22;26570;50.962;5.340;2023-04-12T16:00:45;13.20;99.90
40848;DHT22;26570;50.962;5.340;2023-04-12T16:03:56;13.20;99.90
40848;DHT22;26570;50.962;5.340;2023-04-12T16:06:41;13.00;99.90
40848;DHT22;26570;50.962;5.340;2023-04-12T16:09:33;13.00;99.90
40848;DHT22;26570;50.962;5.340;2023-04-12T16:12:20;13.20;99.90
40848;DHT22;26570;50.962;5.340;2023-04-12T16:15:17;13.10;99.90
40848;DHT22;26570;50.962;5.340;2023-04-12T16:18:03;13.20;99.90
40848;DHT22;26570;50.962;5.340;2023-04-12T16:20:48;13.20;99.90
40848;DHT22;26570;50.962;5.340;2023-04-12T16:23:37;13.20;99.90
40848;DHT22;26570;50.962;5.340;2023-04-12T16:26:21;13.20;99.90
40848;DHT22;26570;50.962;5.340;2023-04-12T16:29:30;13.30;99.90
40848;DHT22;26570;50.962;5.340;2023-04-12T16:32:15;13.10;99.90
40848;DHT22;26570;50.962;5.340;2023-04-12T16:35:04;12.70;99.90
40848;DHT22;26570;50.962;5.340;2023-04-12T16:37:55;12.50;99.90
40848;DHT22;26570;50.962;5.340;2023-04-12T16:40:40;12.30;99.90
40848;DHT22;26570;50.962;5.340;2023-04-12T16:43:25;12.10;99.90
40848;DHT22;26570;50.962;5.340;2023-04-12T16:46:11;12.20;99.90
40848;DHT22;26570;50.962;5.340;2023-04-12T16:48:58;12.20;99.90
40848;DHT22;26570;50.962;5.340;2023-04-12T16:51:49;12.30;99.90
40848;DHT22;26570;50.962;5.340;2023-04-12T16:54:37;12.20;99.90
40848;DHT22;26570;50.962;5.340;2023-04-12T16:57:30;12.10;99.90
40848;DHT22;26570;50.962;5.340;2023-04-12T17:00:41;12.20;99.90
40848;DHT22;26570;50.962;5.340;2023-04-12T17:03:29;12.10;99.90
40848;DHT22;26570;50.962;5.340;2023-04-12T17:06:41;12.30;99.90
40848;DHT22;26570;50.962;5.340;2023-04-12T17:09:29;12.50;99.90
40848;DHT22;26570;50.962;5.340;2023-04-12T17:12:15;12.30;99.90
40848;DHT22;26570;50.962;5.340;2023-04-12T17:15:26;12.00;99.90
40848;DHT22;26570;50.962;5.340;2023-04-12T17:18:12;11.80;99.90
40848;DHT22;26570;50.962;5.340;2023-04-12T17:20:57;11.80;99.90
40848;DHT22;26570;50.962;5.340;2023-04-12T17:23:42;11.60;99.90
40848;DHT22;26570;50.962;5.340;2023-04-12T17:26:27;11.60;99.90
40848;DHT22;26570;50.962;5.340;2023-04-12T17:29:12;11.60;99.90
40848;DHT22;26570;50.962;5.340;2023-04-12T17:31:57;11.40;99.90
40848;DHT22;26570;50.962;5.340;2023-04-12T17:34:46;11.50;99.90
40848;DHT22;26570;50.962;5.340;2023-04-12T17:37:33;11.40;99.90
40848;DHT22;26570;50.962;5.340;2023-04-12T17:40:18;11.20;99.90
40848;DHT22;26570;50.962;5.340;2023-04-12T17:43:06;11.10;99.90
40848;DHT22;26570;50.962;5.340;2023-04-12T17:46:16;11.00;99.90
40848;DHT22;26570;50.962;5.340;2023-04-12T17:49:01;10.90;99.90
40848;DHT22;26570;50.962;5.340;2023-04-12T17:52:12;11.50;99.90
40848;DHT22;26570;50.962;5.340;2023-04-12T17:54:58;10.90;99.90
40848;DHT22;26570;50.962;5.340;2023-04-12T17:57:43;10.90;99.90
40848;DHT22;26570;50.962;5.340;2023-04-12T18:00:28;10.80;99.90
40848;DHT22;26570;50.962;5.340;2023-04-12T18:03:12;10.70;99.90
40848;DHT22;26570;50.962;5.340;2023-04-12T18:05:59;10.60;99.90
40848;DHT22;26570;50.962;5.340;2023-04-12T18:08:44;10.60;99.90
40848;DHT22;26570;50.962;5.340;2023-04-12T18:11:30;10.60;99.90
40848;DHT22;26570;50.962;5.340;2023-04-12T18:14:21;10.70;99.90
40848;DHT22;26570;50.962;5.340;2023-04-12T18:17:06;10.60;99.90
40848;DHT22;26570;50.962;5.340;2023-04-12T18:19:52;10.50;99.90
40848;DHT22;26570;50.962;5.340;2023-04-12T18:22:39;10.30;99.90
40848;DHT22;26570;50.962;5.340;2023-04-12T18:25:26;9.90;99.90